Time;durP1;ratioP1;P1;durP2;ratioP2;P2;SDS_P1;SDS_P2;PMS_P1;PMS_P2;Temp;Humidity;BMP_temperature;BMP_pressure;BME280_temperature;BME280_humidity;BME280_pressure;Samples;Min_cycle;Max_cycle;Signal;HPM_P1;HPM_P2
2022/07/06 00:02:17;;;;;;;21.10;11.83;;;;;;;34.96;49.58;101321.47;6244591;23;20839;-77
2022/07/06 00:04:43;;;;;;;18.13;10.60;;;;;;;35.27;49.21;101319.44;6244166;23;20881;-77
2022/07/06 00:07:09;;;;;;;28.40;11.67;;;;;;;35.15;49.18;101308.97;6244358;23;20394;-79
2022/07/06 00:09:35;;;;;;;19.67;12.60;;;;;;;35.16;48.96;101313.28;6244299;23;20496;-77
2022/07/06 00:12:02;;;;;;;25.40;14.37;;;;;;;35.30;48.73;101305.44;6244530;23;20379;-79
2022/07/06 00:14:28;;;;;;;28.80;14.27;;;;;;;35.31;48.54;101309.72;6244387;23;20847;-79
2022/07/06 00:16:54;;;;;;;21.37;15.20;;;;;;;35.10;49.01;101310.88;6244111;23;20408;-78
2022/07/06 00:19:20;;;;;;;24.30;14.43;;;;;;;35.39;48.78;101321.81;6244380;23;20385;-77
2022/07/06 00:21:46;;;;;;;30.70;15.10;;;;;;;35.48;48.50;101312.09;6246193;22;20363;-77
2022/07/06 00:24:12;;;;;;;27.07;13.23;;;;;;;35.27;48.98;101308.66;6243929;23;20507;-79
2022/07/06 00:26:39;;;;;;;25.23;15.43;;;;;;;35.50;48.30;101308.03;6244282;23;20378;-77
2022/07/06 00:29:05;;;;;;;18.83;11.70;;;;;;;35.41;48.14;101298.88;6244079;23;20388;-77
2022/07/06 00:31:31;;;;;;;22.47;10.40;;;;;;;35.42;48.54;101303.25;6246063;22;20397;-77
2022/07/06 00:33:57;;;;;;;19.77;11.70;;;;;;;35.27;48.92;101301.38;6246157;22;20450;-79
2022/07/06 00:36:23;;;;;;;31.30;13.10;;;;;;;35.22;48.85;101290.59;6243916;23;20402;-79
2022/07/06 00:38:50;;;;;;;28.00;14.50;;;;;;;35.34;48.76;101284.09;6244168;23;20386;-79
2022/07/06 00:41:16;;;;;;;26.73;14.40;;;;;;;35.12;48.82;101284.47;6243995;23;20385;-76
2022/07/06 00:43:56;;;;;;;29.87;14.63;;;;;;;35.19;49.01;101277.69;6243755;23;20418;-79
2022/07/06 00:46:32;;;;;;;21.70;12.97;;;;;;;35.29;48.88;101282.22;6244003;23;20909;-79
2022/07/06 00:48:58;;;;;;;26.83;13.20;;;;;;;35.35;48.35;101281.09;6243657;23;20382;-77
2022/07/06 00:51:30;;;;;;;24.37;16.40;;;;;;;35.27;48.39;101276.28;6243827;22;20434;-76
2022/07/06 00:54:00;;;;;;;29.63;12.47;;;;;;;35.32;48.71;101278.16;6243993;23;20378;-77
2022/07/06 00:56:29;;;;;;;40.23;13.50;;;;;;;35.23;48.64;101269.84;6243926;23;20401;-79
2022/07/06 00:58:56;;;;;;;32.10;14.23;;;;;;;35.18;48.83;101269.88;6243816;23;20475;-79
2022/07/06 01:01:22;;;;;;;22.13;14.07;;;;;;;35.21;49.07;101269.31;6243691;23;20374;-79
2022/07/06 01:03:48;;;;;;;29.23;14.10;;;;;;;35.39;48.43;101271.38;6245614;22;20406;-79
2022/07/06 01:06:15;;;;;;;21.73;12.63;;;;;;;35.15;48.95;101265.03;6245752;22;20437;-77
2022/07/06 01:08:41;;;;;;;33.70;13.23;;;;;;;35.12;48.68;101263.72;6245576;22;20354;-76
2022/07/06 01:11:08;;;;;;;17.13;11.90;;;;;;;35.26;48.40;101262.00;6243831;23;20448;-77
2022/07/06 01:13:34;;;;;;;25.10;11.07;;;;;;;35.44;48.35;101252.50;6243454;23;20432;-79
2022/07/06 01:16:00;;;;;;;23.80;12.03;;;;;;;35.31;48.73;101257.69;6243752;23;20378;-78
2022/07/06 01:18:27;;;;;;;18.63;11.53;;;;;;;35.31;48.43;101258.50;6245549;22;20365;-77
2022/07/06 01:21:08;;;;;;;22.63;12.20;;;;;;;35.32;48.33;101254.69;6243375;23;20860;-77
2022/07/06 01:23:40;;;;;;;26.10;11.30;;;;;;;35.40;48.47;101246.00;6245325;22;20406;-77
2022/07/06 01:26:08;;;;;;;19.93;10.63;;;;;;;35.40;48.20;101242.50;6243601;23;20397;-78
2022/07/06 01:28:34;;;;;;;33.17;15.47;;;;;;;35.56;47.68;101237.88;6243840;23;20383;-77
2022/07/06 01:31:00;;;;;;;34.30;11.80;;;;;;;35.64;48.10;101239.94;6245604;22;20819;-77
2022/07/06 01:33:26;;;;;;;27.33;12.90;;;;;;;35.48;47.97;101245.47;6245587;22;20441;-77
2022/07/06 01:35:53;;;;;;;27.40;12.87;;;;;;;35.44;47.97;101246.31;6245552;23;20465;-77
2022/07/06 01:38:19;;;;;;;30.07;15.67;;;;;;;35.58;48.03;101241.06;6243390;23;20378;-77
2022/07/06 01:40:45;;;;;;;26.77;14.67;;;;;;;35.62;47.83;101253.72;6243682;23;20395;-79
2022/07/06 01:43:11;;;;;;;37.90;16.70;;;;;;;35.58;47.31;101249.16;6243275;23;20426;-79
2022/07/06 01:45:37;;;;;;;28.83;15.50;;;;;;;35.58;47.43;101246.47;6243482;23;20385;-77
2022/07/06 01:48:07;;;;;;;25.17;15.30;;;;;;;35.49;47.53;101251.66;6243457;23;20386;-77
2022/07/06 01:50:33;;;;;;;25.83;14.60;;;;;;;35.46;47.66;101250.31;6245259;22;20448;-77
2022/07/06 01:53:02;;;;;;;25.33;13.87;;;;;;;35.33;47.91;101242.81;6243363;23;20445;-77
2022/07/06 01:55:28;;;;;;;30.67;14.70;;;;;;;35.32;47.92;101249.31;6243483;23;20867;-77
2022/07/06 01:57:54;;;;;;;23.43;15.03;;;;;;;35.43;48.04;101245.50;6243654;23;20377;-77
2022/07/06 02:00:20;;;;;;;33.50;15.00;;;;;;;35.34;48.20;101247.13;6243479;23;20398;-77
2022/07/06 02:02:47;;;;;;;42.07;16.93;;;;;;;35.31;48.52;101245.00;6243229;23;20378;-77
2022/07/06 02:05:13;;;;;;;34.57;15.03;;;;;;;35.28;48.14;101251.75;6245440;22;20351;-79
2022/07/06 02:07:39;;;;;;;32.80;15.47;;;;;;;35.44;48.11;101249.00;6243244;23;20862;-79
2022/07/06 02:10:05;;;;;;;30.80;16.03;;;;;;;35.33;48.21;101244.72;6243402;23;20405;-77
2022/07/06 02:12:31;;;;;;;27.37;14.47;;;;;;;35.27;48.63;101243.94;6243444;23;20374;-77
2022/07/06 02:14:58;;;;;;;25.40;15.57;;;;;;;35.32;48.19;101249.31;6243424;23;20374;-79
2022/07/06 02:17:24;;;;;;;34.50;16.40;;;;;;;35.33;48.10;101248.22;6243324;23;20435;-79
2022/07/06 02:19:50;;;;;;;20.20;15.10;;;;;;;35.11;48.43;101245.09;6243144;23;20381;-79
2022/07/06 02:22:16;;;;;;;28.50;13.80;;;;;;;35.08;48.81;101240.25;6243259;23;20409;-79
2022/07/06 02:24:42;;;;;;;29.40;13.97;;;;;;;35.00;48.85;101241.66;6243387;23;20418;-79
2022/07/06 02:27:08;;;;;;;23.70;12.67;;;;;;;34.69;49.87;101244.44;6243221;23;20390;-77
2022/07/06 02:29:34;;;;;;;30.97;14.10;;;;;;;34.84;49.17;101240.06;6243197;23;20881;-77
2022/07/06 02:32:01;;;;;;;22.63;13.80;;;;;;;35.07;48.90;101246.75;6243187;23;20562;-77
2022/07/06 02:34:27;;;;;;;24.23;15.30;;;;;;;35.18;48.83;101251.00;6243456;23;20429;-77
2022/07/06 02:36:53;;;;;;;28.60;16.10;;;;;;;35.24;48.74;101258.00;6243099;23;20401;-77
2022/07/06 02:39:19;;;;;;;24.53;14.07;;;;;;;35.30;48.42;101246.09;6243193;23;20379;-77
2022/07/06 02:41:45;;;;;;;27.07;12.40;;;;;;;35.18;48.56;101248.31;6243263;23;20382;-77
2022/07/06 02:44:11;;;;;;;20.80;12.70;;;;;;;35.20;48.36;101254.22;6242927;23;20414;-79
2022/07/06 02:46:37;;;;;;;23.70;15.17;;;;;;;35.13;48.76;101251.03;6243345;23;20375;-77
2022/07/06 02:49:03;;;;;;;20.90;12.87;;;;;;;35.15;48.40;101255.06;6243010;23;20370;-78
2022/07/06 02:51:30;;;;;;;26.53;14.17;;;;;;;35.27;48.46;101255.53;6243042;22;20453;-79
2022/07/06 02:53:56;;;;;;;24.13;13.07;;;;;;;35.13;48.67;101253.72;6242857;23;20374;-79
2022/07/06 02:56:22;;;;;;;19.40;14.17;;;;;;;35.17;48.78;101258.28;6243007;23;20724;-77
2022/07/06 02:58:48;;;;;;;26.10;13.40;;;;;;;35.19;48.54;101258.81;6243049;23;20819;-79
2022/07/06 03:01:14;;;;;;;20.03;13.10;;;;;;;35.30;48.71;101259.56;6242825;23;20375;-77
2022/07/06 03:03:40;;;;;;;25.70;16.47;;;;;;;35.34;48.21;101257.09;6242976;23;20426;-77
2022/07/06 03:06:07;;;;;;;23.30;14.10;;;;;;;35.42;48.38;101256.50;6242745;23;20771;-77
2022/07/06 03:08:34;;;;;;;32.60;15.40;;;;;;;35.29;48.30;101249.84;6243026;23;20413;-77
2022/07/06 03:11:00;;;;;;;30.60;16.33;;;;;;;35.10;48.72;101256.97;6245036;22;20358;-78
2022/07/06 03:13:28;;;;;;;26.17;14.03;;;;;;;35.08;49.03;101249.16;6244900;23;20382;-78
2022/07/06 03:15:55;;;;;;;21.77;13.10;;;;;;;34.73;49.13;101250.88;6244899;23;20425;-77
2022/07/06 03:18:21;;;;;;;24.77;15.30;;;;;;;35.02;49.12;101257.53;6244863;23;20382;-79
2022/07/06 03:20:47;;;;;;;27.00;14.03;;;;;;;35.11;48.66;101259.41;6244773;23;20439;-79
2022/07/06 03:23:13;;;;;;;22.80;16.10;;;;;;;35.12;49.19;101260.22;6244551;23;20444;-76
2022/07/06 03:25:40;;;;;;;29.30;15.47;;;;;;;35.15;48.73;101268.53;6244945;23;20378;-77
2022/07/06 03:28:06;;;;;;;23.63;13.33;;;;;;;35.18;48.61;101262.59;6244593;23;20478;-79
2022/07/06 03:30:32;;;;;;;27.17;14.73;;;;;;;35.35;48.47;101262.22;6244784;23;20382;-77
2022/07/06 03:32:58;;;;;;;29.73;14.03;;;;;;;35.29;47.89;101266.03;6244725;23;20403;-78
2022/07/06 03:35:24;;;;;;;33.13;14.57;;;;;;;35.11;48.34;101254.00;6244510;23;20877;-79
2022/07/06 03:37:50;;;;;;;26.03;14.57;;;;;;;35.10;48.94;101246.19;6244659;23;20385;-79
2022/07/06 03:40:17;;;;;;;19.67;12.43;;;;;;;34.98;49.01;101250.00;6244512;23;20410;-79
2022/07/06 03:42:43;;;;;;;23.60;13.57;;;;;;;35.14;48.46;101255.34;6246683;22;20450;-79
2022/07/06 03:45:09;;;;;;;21.80;12.80;;;;;;;35.10;48.77;101251.56;6244549;23;20453;-77
2022/07/06 03:47:36;;;;;;;22.03;13.20;;;;;;;35.17;48.43;101252.91;6244662;23;20409;-79
2022/07/06 03:50:02;;;;;;;22.60;14.33;;;;;;;35.13;48.35;101251.03;6244595;22;20402;-79
2022/07/06 03:52:28;;;;;;;26.73;14.43;;;;;;;35.21;48.60;101250.44;6244001;23;20765;-79
2022/07/06 03:54:55;;;;;;;29.50;16.03;;;;;;;34.79;48.94;101251.66;6244657;23;20795;-77
2022/07/06 03:57:22;;;;;;;32.43;19.23;;;;;;;34.80;49.14;101252.47;6244568;23;20378;-79
2022/07/06 03:59:48;;;;;;;27.70;14.13;;;;;;;34.81;49.42;101249.53;6244271;23;20398;-79
2022/07/06 04:02:14;;;;;;;35.90;16.77;;;;;;;34.79;49.69;101245.47;6244511;23;20859;-79
2022/07/06 04:04:40;;;;;;;28.40;13.67;;;;;;;35.02;49.19;101242.19;6244143;23;20422;-79
2022/07/06 04:07:06;;;;;;;43.20;19.90;;;;;;;35.05;49.13;101249.72;6244497;23;20382;-79
2022/07/06 04:09:32;;;;;;;35.23;15.37;;;;;;;34.96;48.63;101257.56;6244233;23;20389;-79
2022/07/06 04:11:58;;;;;;;25.20;15.93;;;;;;;34.97;48.96;101247.59;6244312;23;20497;-79
2022/07/06 04:14:27;;;;;;;36.50;15.93;;;;;;;35.23;48.51;101251.75;6244402;23;20375;-77
2022/07/06 04:16:53;;;;;;;39.17;16.90;;;;;;;35.21;48.15;101247.75;6244252;23;20417;-77
2022/07/06 04:19:19;;;;;;;22.23;14.23;;;;;;;35.14;48.07;101256.13;6244368;23;20433;-77
2022/07/06 04:21:45;;;;;;;29.50;15.07;;;;;;;35.31;47.38;101263.88;6244254;23;20374;-77
2022/07/06 04:24:11;;;;;;;38.57;15.90;;;;;;;35.29;47.78;101260.63;6243473;23;20513;-77
2022/07/06 04:26:37;;;;;;;35.30;17.20;;;;;;;35.11;47.60;101254.00;6244213;23;20516;-77
2022/07/06 04:29:03;;;;;;;31.53;16.03;;;;;;;35.24;47.18;101266.88;6244043;23;20409;-77
2022/07/06 04:31:29;;;;;;;35.20;13.53;;;;;;;35.15;47.17;101265.03;6244035;23;20700;-77
2022/07/06 04:33:56;;;;;;;24.57;14.70;;;;;;;35.25;46.88;101259.59;6244247;23;20718;-79
2022/07/06 04:36:22;;;;;;;34.70;17.17;;;;;;;35.20;47.19;101256.91;6243987;23;20413;-80
2022/07/06 04:38:48;;;;;;;35.30;13.70;;;;;;;35.26;47.12;101259.31;6244128;23;20897;-79
2022/07/06 04:41:14;;;;;;;22.70;13.60;;;;;;;35.19;46.96;101260.72;6244051;23;20924;-80
2022/07/06 04:43:41;;;;;;;33.70;15.50;;;;;;;35.08;47.49;101259.13;6243862;23;20941;-79
2022/07/06 04:46:07;;;;;;;46.77;16.23;;;;;;;35.15;47.02;101265.03;6244019;23;20383;-78
2022/07/06 04:48:36;;;;;;;27.97;17.87;;;;;;;35.25;46.98;101267.69;6243893;23;20388;-79
2022/07/06 04:51:02;;;;;;;35.80;15.80;;;;;;;35.33;47.04;101269.00;6247991;22;20520;-79
2022/07/06 04:53:30;;;;;;;57.90;19.10;;;;;;;35.38;46.62;101271.66;6248826;22;20378;-79
2022/07/06 04:55:56;;;;;;;42.53;16.67;;;;;;;35.44;46.36;101273.28;6248932;22;20385;-77
2022/07/06 04:58:22;;;;;;;39.63;18.30;;;;;;;35.35;46.53;101273.00;6248943;22;20393;-77
2022/07/06 05:00:49;;;;;;;35.80;16.67;;;;;;;35.43;46.80;101275.16;6248784;22;20373;-77
2022/07/06 05:03:15;;;;;;;45.33;14.57;;;;;;;35.48;46.82;101283.25;6248841;22;20417;-77
2022/07/06 05:05:41;;;;;;;40.70;17.47;;;;;;;35.57;46.40;101285.34;6248643;22;20374;-77
2022/07/06 05:08:07;;;;;;;44.10;16.40;;;;;;;35.44;46.34;101286.75;6275935;22;20427;-77
2022/07/06 05:10:33;;;;;;;23.40;15.77;;;;;;;35.50;46.74;101293.75;6248924;22;20419;-78
2022/07/06 05:12:59;;;;;;;38.90;16.53;;;;;;;35.39;46.65;101289.47;6248651;22;20805;-79
2022/07/06 05:15:25;;;;;;;27.53;15.13;;;;;;;35.52;46.48;101284.28;6248789;22;20377;-76
2022/07/06 05:17:52;;;;;;;34.57;16.90;;;;;;;35.52;46.97;101281.56;6248650;22;20374;-79
2022/07/06 05:20:18;;;;;;;27.60;14.83;;;;;;;35.54;46.85;101283.97;6276452;22;20362;-76
2022/07/06 05:22:44;;;;;;;33.37;17.37;;;;;;;35.51;46.98;101289.97;6275850;22;20370;-76
2022/07/06 05:25:10;;;;;;;29.50;16.87;;;;;;;35.51;46.97;101289.97;6248450;22;20448;-77
2022/07/06 05:27:36;;;;;;;33.47;14.90;;;;;;;35.15;47.22;101297.38;6276387;22;20355;-75
2022/07/06 05:30:03;;;;;;;30.93;15.67;;;;;;;35.17;47.25;101293.34;6248586;22;20373;-75
2022/07/06 05:32:29;;;;;;;22.27;13.47;;;;;;;35.17;47.86;101297.91;6248576;22;20393;-73
2022/07/06 05:34:55;;;;;;;33.87;14.83;;;;;;;35.34;47.33;101311.06;6276149;22;20825;-76
2022/07/06 05:37:22;;;;;;;30.33;13.67;;;;;;;35.40;46.99;101312.66;6248312;22;20389;-76
2022/07/06 05:39:49;;;;;;;39.63;17.50;;;;;;;35.35;46.94;101326.94;6248400;22;20401;-76
2022/07/06 05:42:16;;;;;;;29.23;14.90;;;;;;;35.42;46.84;101324.81;6248311;22;20382;-76
2022/07/06 05:44:42;;;;;;;29.27;16.03;;;;;;;35.48;47.22;101322.88;6248346;22;20418;-76
2022/07/06 05:52:37;;;;;;;50.63;20.27;;;;;;;35.39;47.18;101338.81;6274876;22;20532;-76
2022/07/06 05:55:03;;;;;;;32.53;17.30;;;;;;;35.37;47.47;101338.28;6276150;22;20862;-76
2022/07/06 05:57:29;;;;;;;28.23;17.30;;;;;;;35.37;47.01;101343.69;6248330;22;20376;-76
2022/07/06 05:59:56;;;;;;;35.93;17.27;;;;;;;35.48;46.86;101345.28;6248432;22;20381;-78
2022/07/06 06:02:22;;;;;;;46.77;20.23;;;;;;;35.51;46.91;101347.41;6248530;22;20381;-78
2022/07/06 06:04:48;;;;;;;28.30;17.17;;;;;;;35.38;47.51;101347.19;6247804;22;20437;-79
2022/07/06 06:07:15;;;;;;;38.67;18.53;;;;;;;35.35;47.68;101356.63;6275490;22;20376;-76
2022/07/06 06:09:41;;;;;;;25.47;16.50;;;;;;;35.32;47.55;101357.19;6248246;22;20409;-77
2022/07/06 06:12:07;;;;;;;25.63;18.40;;;;;;;35.31;47.70;101366.38;6248085;22;20385;-76
2022/07/06 06:14:33;;;;;;;32.93;21.07;;;;;;;35.16;47.71;101369.91;6247874;22;20389;-76
2022/07/06 06:16:59;;;;;;;49.53;24.93;;;;;;;35.18;48.46;101373.16;6247886;22;20409;-77
2022/07/06 06:19:26;;;;;;;41.43;22.83;;;;;;;35.17;47.81;101376.13;6248225;22;20864;-76
2022/07/06 06:21:52;;;;;;;40.20;26.30;;;;;;;35.25;48.15;101383.66;6247595;22;20436;-77
2022/07/06 06:24:18;;;;;;;44.73;31.00;;;;;;;35.04;48.24;101387.47;6247640;22;20440;-78
2022/07/06 06:26:44;;;;;;;46.43;24.13;;;;;;;35.13;48.39;101399.34;6248181;22;20382;-76
2022/07/06 06:29:10;;;;;;;37.07;25.33;;;;;;;35.25;48.28;101395.25;6248012;22;20389;-79
2022/07/06 06:31:37;;;;;;;32.13;22.33;;;;;;;35.24;48.04;101388.25;6248191;22;20877;-79
2022/07/06 06:34:03;;;;;;;52.57;26.83;;;;;;;35.26;48.03;101391.47;6248328;22;20380;-79
2022/07/06 06:36:29;;;;;;;37.07;24.73;;;;;;;35.26;48.68;101387.97;6248211;22;20392;-77
2022/07/06 06:38:55;;;;;;;45.13;23.93;;;;;;;35.24;48.56;101393.63;6248444;22;20394;-80
2022/07/06 11:50:02;;;;;;;23.13;10.00;;;;;;;37.13;42.02;101401.28;6258770;22;20982;-77
2022/07/06 11:52:31;;;;;;;21.90;9.07;;;;;;;37.15;42.32;101408.34;6249013;22;20397;-76
2022/07/06 11:55:00;;;;;;;34.00;11.93;;;;;;;37.14;42.88;101396.72;6249694;22;20385;-76
2022/07/06 11:57:31;;;;;;;19.33;9.70;;;;;;;37.26;42.35;101394.41;6277255;22;20428;-75
2022/07/06 11:59:57;;;;;;;17.13;10.17;;;;;;;37.29;42.76;101383.00;6249495;22;20388;-75
2022/07/06 12:02:24;;;;;;;21.97;9.10;;;;;;;37.22;42.16;101390.66;6249438;22;20390;-75
2022/07/06 12:04:50;;;;;;;23.37;10.50;;;;;;;37.29;41.80;101377.59;6249556;22;20433;-74
2022/07/06 12:07:17;;;;;;;15.93;9.13;;;;;;;37.22;41.61;101370.91;6249483;22;20381;-73
2022/07/06 12:09:46;;;;;;;12.73;8.10;;;;;;;37.13;41.68;101376.16;6249487;22;20568;-73
2022/07/06 12:12:13;;;;;;;18.10;10.90;;;;;;;37.14;41.88;101380.47;6249483;22;20382;-73
2022/07/06 12:14:40;;;;;;;15.73;9.33;;;;;;;37.09;41.95;101377.84;6249371;22;20447;-73
2022/07/06 12:17:15;;;;;;;15.53;9.13;;;;;;;37.20;41.81;101370.38;6249522;22;20431;-73
2022/07/06 12:19:41;;;;;;;18.50;8.90;;;;;;;37.32;42.21;101366.19;6276970;22;20354;-75
2022/07/06 12:22:09;;;;;;;23.27;10.03;;;;;;;37.43;41.82;101372.28;6249281;22;20877;-73
2022/07/06 12:24:37;;;;;;;12.90;8.33;;;;;;;37.48;41.29;101366.00;6249237;22;20421;-73
2022/07/06 12:27:17;;;;;;;16.50;9.30;;;;;;;37.48;41.21;101368.72;6274620;22;20460;-74
2022/07/06 12:29:44;;;;;;;16.33;9.93;;;;;;;37.49;41.60;101364.91;6248831;22;20472;-74
2022/07/06 12:32:19;;;;;;;15.87;8.77;;;;;;;37.33;41.74;101364.28;6248295;22;20389;-76
2022/07/06 12:34:46;;;;;;;13.23;7.77;;;;;;;37.34;41.82;101368.63;6248971;22;20377;-74
2022/07/06 12:37:13;;;;;;;25.63;10.37;;;;;;;37.40;41.82;101367.47;6248848;22;20464;-74
2022/07/06 12:39:47;;;;;;;30.47;14.03;;;;;;;37.18;42.57;101353.66;6248978;22;20385;-74
2022/07/06 12:42:15;;;;;;;15.60;9.83;;;;;;;37.28;41.81;101358.94;6248892;22;20380;-74
2022/07/06 12:44:47;;;;;;;15.13;9.70;;;;;;;37.29;41.72;101352.44;6248426;22;20444;-74
2022/07/06 12:47:17;;;;;;;18.13;10.13;;;;;;;37.26;41.42;101353.81;6248650;22;20776;-77
2022/07/06 12:49:43;;;;;;;15.27;9.13;;;;;;;37.15;41.04;101349.63;6243564;22;20922;-76
2022/07/06 12:52:14;;;;;;;19.93;11.97;;;;;;;37.12;41.61;101355.59;6245835;22;20443;-75
2022/07/06 12:54:43;;;;;;;21.27;10.43;;;;;;;37.22;41.55;101347.38;6244100;23;20432;-74
2022/07/06 12:57:18;;;;;;;28.73;11.60;;;;;;;37.22;41.79;101341.97;6243808;23;20402;-74
2022/07/06 12:59:46;;;;;;;18.20;9.90;;;;;;;37.16;41.65;101337.72;6243950;23;20727;-74
2022/07/06 13:02:39;;;;;;;17.17;8.80;;;;;;;37.18;42.13;101330.09;6269290;22;20850;-74
2022/07/06 13:05:07;;;;;;;11.80;7.53;;;;;;;37.17;41.50;101330.41;6240022;23;20430;-75
2022/07/06 13:07:35;;;;;;;17.80;10.17;;;;;;;37.24;41.75;101325.44;6269256;22;20433;-74
2022/07/06 13:10:04;;;;;;;19.07;8.97;;;;;;;36.98;41.98;101319.53;6243840;23;20387;-74
2022/07/06 13:12:31;;;;;;;13.50;8.17;;;;;;;37.16;42.10;101315.28;6243838;23;20940;-76
2022/07/06 13:14:57;;;;;;;16.17;9.00;;;;;;;36.98;41.71;101312.22;6243773;23;20444;-74
2022/07/06 13:17:24;;;;;;;18.80;8.50;;;;;;;36.94;41.74;101310.38;6245830;22;20420;-74
2022/07/06 13:19:50;;;;;;;22.77;12.13;;;;;;;36.98;42.19;101306.81;6269263;22;20822;-74
2022/07/06 13:22:17;;;;;;;16.10;10.30;;;;;;;36.96;41.59;101295.50;6243684;23;20801;-74
2022/07/06 13:24:43;;;;;;;17.53;9.33;;;;;;;37.04;41.97;101296.75;6243462;23;20430;-75
2022/07/06 13:27:10;;;;;;;18.33;10.23;;;;;;;37.13;42.08;101292.28;6269224;22;20436;-75
2022/07/06 13:29:36;;;;;;;17.60;10.90;;;;;;;37.16;41.77;101280.91;6245738;22;20464;-74
2022/07/06 13:32:04;;;;;;;14.40;9.93;;;;;;;37.17;41.65;101279.81;6243503;23;20425;-77
2022/07/06 13:34:31;;;;;;;19.20;9.33;;;;;;;37.37;41.77;101281.44;6245689;23;20741;-76
2022/07/06 13:36:57;;;;;;;18.53;10.60;;;;;;;37.48;41.44;101274.00;6269072;22;20382;-76
2022/07/06 13:39:27;;;;;;;28.23;12.07;;;;;;;37.29;41.70;101277.47;6243605;23;20437;-74
2022/07/06 13:41:54;;;;;;;21.80;11.07;;;;;;;37.30;41.63;101276.38;6243570;23;20386;-74
2022/07/06 13:44:21;;;;;;;19.67;10.80;;;;;;;37.41;41.14;101260.84;6245374;22;20430;-76
2022/07/06 13:46:47;;;;;;;21.43;10.73;;;;;;;37.45;40.98;101261.88;6243722;23;20390;-78
2022/07/06 13:49:13;;;;;;;20.33;10.37;;;;;;;37.41;41.71;101250.00;6243236;22;20434;-78
2022/07/06 13:51:40;;;;;;;17.77;11.40;;;;;;;37.48;41.65;101250.44;6243650;23;20385;-75
2022/07/06 13:54:07;;;;;;;19.17;10.60;;;;;;;37.57;41.35;101239.78;6243384;23;20448;-76
2022/07/06 13:56:34;;;;;;;22.30;10.07;;;;;;;37.61;41.52;101244.28;6243388;23;20726;-75
2022/07/06 13:59:00;;;;;;;19.20;10.97;;;;;;;37.67;40.94;101236.09;6245603;22;20692;-75
2022/07/06 14:01:27;;;;;;;21.10;12.00;;;;;;;37.59;40.99;101230.25;6243384;23;20397;-74
2022/07/06 14:03:53;;;;;;;24.40;11.17;;;;;;;37.70;41.64;101230.09;6243250;23;20426;-77
2022/07/06 14:06:20;;;;;;;20.80;12.00;;;;;;;37.91;41.18;101229.47;6243308;23;20408;-74
2022/07/06 14:08:47;;;;;;;22.80;11.43;;;;;;;37.92;40.36;101230.28;6243377;23;20942;-76
2022/07/06 14:11:13;;;;;;;18.67;9.80;;;;;;;37.94;40.40;101230.81;6243288;23;20406;-76
2022/07/06 14:13:40;;;;;;;18.60;11.00;;;;;;;38.00;40.50;101234.19;6268942;22;20378;-76
2022/07/06 14:16:07;;;;;;;14.77;9.20;;;;;;;37.97;40.62;101227.47;6245269;22;20355;-74
2022/07/06 14:18:33;;;;;;;23.93;11.27;;;;;;;38.01;41.02;101225.78;6268738;22;20499;-73
2022/07/06 14:21:00;;;;;;;27.07;11.73;;;;;;;38.11;41.06;101225.59;6243468;23;20397;-76
2022/07/06 14:23:29;;;;;;;20.53;11.93;;;;;;;38.26;40.45;101221.00;6243318;22;20426;-77
2022/07/06 14:25:56;;;;;;;16.57;10.00;;;;;;;38.24;40.13;101225.91;6245295;22;20687;-77
2022/07/06 14:28:22;;;;;;;21.23;11.33;;;;;;;38.26;40.12;101216.44;6245259;22;20350;-75
2022/07/06 14:30:49;;;;;;;16.47;10.33;;;;;;;38.07;40.38;101210.25;6243106;23;20436;-75
2022/07/06 14:33:16;;;;;;;21.47;10.13;;;;;;;37.98;40.82;101209.31;6243253;23;20383;-74
2022/07/06 14:35:47;;;;;;;18.63;11.10;;;;;;;37.80;40.82;101211.78;6243265;23;20402;-74
2022/07/06 14:38:15;;;;;;;18.43;10.07;;;;;;;37.84;40.60;101209.31;6245079;22;20493;-75
2022/07/06 14:40:42;;;;;;;17.70;11.10;;;;;;;37.77;40.95;101204.25;6243307;23;20463;-76
2022/07/06 14:43:08;;;;;;;19.97;11.27;;;;;;;37.89;41.08;101201.09;6242961;23;20382;-74
2022/07/06 14:45:35;;;;;;;19.73;11.60;;;;;;;37.77;41.62;101195.31;6242989;23;20406;-74
2022/07/06 14:48:01;;;;;;;19.20;13.03;;;;;;;37.84;41.03;101190.34;6243671;22;20428;-75
2022/07/06 14:50:29;;;;;;;33.73;12.00;;;;;;;37.73;41.45;101195.09;6248136;22;20772;-74
2022/07/06 14:52:55;;;;;;;19.97;10.17;;;;;;;37.55;41.67;101185.13;6275662;22;20903;-75
2022/07/06 14:55:22;;;;;;;29.07;11.87;;;;;;;37.58;42.29;101184.53;6248108;22;20374;-74
2022/07/06 14:57:48;;;;;;;30.73;12.90;;;;;;;37.54;41.92;101176.19;6248296;22;20373;-77
2022/07/06 15:00:15;;;;;;;18.60;11.80;;;;;;;37.66;41.71;101175.72;6248037;22;20859;-76
2022/07/06 15:02:43;;;;;;;19.47;10.27;;;;;;;37.76;41.74;101180.19;6248267;22;20381;-76
2022/07/06 15:05:11;;;;;;;23.50;10.70;;;;;;;37.78;41.18;101177.97;6275674;22;20406;-76
2022/07/06 15:07:37;;;;;;;32.67;11.73;;;;;;;37.63;41.74;101174.44;6248479;22;20776;-76
2022/07/06 15:10:08;;;;;;;21.83;11.30;;;;;;;37.77;41.53;101181.78;6250092;22;20377;-77
2022/07/06 15:12:34;;;;;;;26.60;12.70;;;;;;;37.56;41.74;101175.91;6249871;22;20373;-76
2022/07/06 15:15:00;;;;;;;31.90;12.73;;;;;;;37.63;41.78;101176.34;6250081;22;20854;-76
2022/07/06 15:17:28;;;;;;;24.93;11.83;;;;;;;37.71;41.62;101177.56;6250028;22;20386;-76
2022/07/06 15:19:55;;;;;;;28.67;11.97;;;;;;;37.74;41.42;101169.63;6249894;22;20413;-77
2022/07/06 15:22:21;;;;;;;19.40;11.37;;;;;;;37.71;41.97;101170.25;6249986;22;20727;-77
2022/07/06 15:24:48;;;;;;;23.33;12.53;;;;;;;37.86;41.88;101161.06;6249677;22;20451;-77
2022/07/06 15:27:14;;;;;;;21.30;13.43;;;;;;;37.87;41.61;101166.16;6249893;22;20881;-76
2022/07/06 15:29:40;;;;;;;49.73;16.53;;;;;;;37.88;41.14;101167.00;6249854;22;20489;-77
2022/07/06 15:32:07;;;;;;;16.63;11.70;;;;;;;37.82;41.57;101160.06;6249760;22;20374;-76
2022/07/06 15:34:34;;;;;;;22.87;11.77;;;;;;;38.03;41.27;101164.00;6249961;22;20894;-76
2022/07/06 15:37:00;;;;;;;21.70;11.30;;;;;;;37.82;41.28;101163.56;6249754;22;20377;-77
2022/07/06 15:39:26;;;;;;;19.67;10.77;;;;;;;37.81;41.10;101161.16;6249859;22;20389;-74
2022/07/06 15:41:52;;;;;;;20.60;10.80;;;;;;;37.79;41.43;101157.91;6249849;22;20377;-74
2022/07/06 15:44:19;;;;;;;15.60;10.37;;;;;;;37.89;41.24;101161.28;6249485;22;20869;-75
2022/07/06 15:46:48;;;;;;;25.90;11.70;;;;;;;37.82;41.92;101160.06;6249688;22;20413;-75
2022/07/06 15:49:17;;;;;;;27.00;11.47;;;;;;;38.03;41.84;101155.88;6276640;22;20471;-75
2022/07/06 15:51:44;;;;;;;40.80;18.80;;;;;;;37.94;41.46;101152.25;6249846;22;20384;-74
2022/07/06 15:54:10;;;;;;;21.53;12.77;;;;;;;37.94;41.40;101156.84;6249657;22;20374;-74
2022/07/06 15:56:38;;;;;;;22.93;13.90;;;;;;;37.96;41.34;101155.47;6249918;22;20759;-75
2022/07/06 15:59:05;;;;;;;36.63;16.07;;;;;;;37.94;41.24;101159.56;6249584;22;20378;-74
2022/07/06 16:01:31;;;;;;;21.20;10.80;;;;;;;37.98;41.18;101155.16;6249637;22;20838;-74
2022/07/06 16:03:58;;;;;;;28.17;12.03;;;;;;;37.81;41.87;101150.31;6249542;22;20765;-74
2022/07/06 16:06:24;;;;;;;33.37;13.53;;;;;;;37.79;41.85;101141.66;6249537;22;20389;-75
2022/07/06 16:08:50;;;;;;;30.93;14.93;;;;;;;37.97;41.62;101148.16;6249477;22;20859;-74
2022/07/06 16:11:17;;;;;;;27.37;13.47;;;;;;;37.80;41.69;101133.28;6249435;22;20377;-75
2022/07/06 16:13:45;;;;;;;23.97;12.33;;;;;;;37.62;41.80;101136.81;6276769;22;20393;-75
2022/07/06 16:16:12;;;;;;;22.37;12.03;;;;;;;37.92;41.64;101128.16;6277194;22;20881;-75
2022/07/06 16:18:39;;;;;;;15.27;10.50;;;;;;;37.73;41.50;101130.13;6249401;22;20393;-74
2022/07/06 16:21:06;;;;;;;28.90;12.90;;;;;;;37.99;41.44;101135.91;6249477;22;20390;-74
2022/07/06 16:23:32;;;;;;;21.10;11.30;;;;;;;37.87;41.22;101133.69;6249103;22;20779;-75